Time;durP1;ratioP1;P1;durP2;ratioP2;P2;SDS_P1;SDS_P2;PMS_P1;PMS_P2;Temp;Humidity;BMP_temperature;BMP_pressure;BME280_temperature;BME280_humidity;BME280_pressure;Samples;Min_cycle;Max_cycle;Signal;HPM_P1;HPM_P2
2021/05/26 00:01:52;;;;;;;1.50;0.60;;;;;;;27.51;27.93;96719.16;4975916;28;20057;-35
2021/05/26 00:04:17;;;;;;;1.92;0.63;;;;;;;27.50;27.93;96717.47;4982096;28;20042;-36
2021/05/26 00:06:43;;;;;;;2.95;0.65;;;;;;;27.49;27.97;96710.47;4980075;28;20040;-34
2021/05/26 00:09:08;;;;;;;6.68;0.70;;;;;;;27.50;27.95;96706.94;4980640;28;20935;-34
2021/05/26 00:11:34;;;;;;;1.95;0.70;;;;;;;27.50;27.88;96706.94;4981759;28;20034;-32
2021/05/26 00:13:59;;;;;;;1.65;0.55;;;;;;;27.49;27.91;96705.22;4978884;28;20571;-34
2021/05/26 00:16:25;;;;;;;4.28;0.82;;;;;;;27.49;27.92;96698.19;4976925;28;20045;-35
2021/05/26 00:18:51;;;;;;;3.08;0.80;;;;;;;27.49;27.99;96700.81;4980227;28;20045;-34
2021/05/26 00:21:17;;;;;;;1.95;0.32;;;;;;;27.49;27.97;96694.69;4975988;28;20038;-34
2021/05/26 00:23:43;;;;;;;2.13;0.60;;;;;;;27.49;28.02;96689.41;4986266;28;20049;-33
2021/05/26 00:26:08;;;;;;;2.00;0.63;;;;;;;27.48;28.05;96683.34;4983170;28;20023;-33
2021/05/26 00:28:34;;;;;;;1.70;0.57;;;;;;;27.49;28.00;96686.78;4983674;28;20049;-34
2021/05/26 00:31:00;;;;;;;3.65;0.52;;;;;;;27.48;27.98;96675.44;4981616;28;20029;-37
2021/05/26 00:33:25;;;;;;;1.17;0.28;;;;;;;27.48;28.02;96671.94;4979065;28;20117;-35
2021/05/26 00:35:51;;;;;;;5.45;0.93;;;;;;;27.44;27.97;96666.03;4978251;28;20087;-35
2021/05/26 00:38:17;;;;;;;2.83;0.50;;;;;;;27.48;28.03;96662.28;4978956;28;20116;-35
2021/05/26 00:40:42;;;;;;;0.85;0.50;;;;;;;27.49;28.02;96657.84;4981220;28;20037;-32
2021/05/26 00:43:08;;;;;;;2.05;0.60;;;;;;;27.48;28.09;96661.41;4985077;28;20026;-33
2021/05/26 00:45:34;;;;;;;5.18;0.63;;;;;;;27.48;28.02;96656.16;4983087;28;20795;-33
2021/05/26 00:48:00;;;;;;;4.05;0.82;;;;;;;27.49;27.94;96657.84;4982838;28;20026;-36
2021/05/26 00:50:27;;;;;;;1.40;0.73;;;;;;;27.48;28.02;96661.41;4985763;28;20099;-35
2021/05/26 00:52:53;;;;;;;3.95;0.70;;;;;;;27.49;28.13;96678.91;4988124;28;20030;-36
2021/05/26 00:55:20;;;;;;;3.75;0.82;;;;;;;27.47;28.14;96679.00;4982362;28;20092;-36
2021/05/26 00:57:47;;;;;;;3.45;0.70;;;;;;;27.47;28.10;96673.75;4984356;28;20100;-33
2021/05/26 01:00:13;;;;;;;5.68;0.70;;;;;;;27.47;28.03;96686.91;4977957;28;20034;-34
2021/05/26 01:02:39;;;;;;;3.13;0.70;;;;;;;27.48;28.15;96687.75;4980872;28;20061;-33
2021/05/26 01:05:05;;;;;;;2.72;0.60;;;;;;;27.48;28.05;96677.22;4978062;28;20041;-37
2021/05/26 01:07:30;;;;;;;0.60;0.30;;;;;;;27.46;28.00;96669.41;4986006;28;20026;-36
2021/05/26 01:09:57;;;;;;;0.98;0.40;;;;;;;27.47;27.92;96665.84;4979452;28;20084;-37
2021/05/26 01:12:22;;;;;;;1.40;0.30;;;;;;;27.46;28.20;96663.31;4962840;28;20037;-40
2021/05/26 01:14:48;;;;;;;2.90;0.63;;;;;;;27.46;28.01;96669.41;4977880;28;20045;-37
2021/05/26 01:17:14;;;;;;;1.58;0.35;;;;;;;27.46;28.08;96679.09;4980585;28;20547;-37
2021/05/26 01:19:39;;;;;;;2.47;0.65;;;;;;;27.46;28.13;96674.66;4977143;28;20018;-34
2021/05/26 01:22:07;;;;;;;1.20;0.43;;;;;;;27.46;28.01;96663.31;4981127;28;20057;-32
2021/05/26 01:24:33;;;;;;;1.70;0.38;;;;;;;27.46;28.09;96655.41;4978410;28;20039;-35
2021/05/26 01:26:59;;;;;;;3.50;0.65;;;;;;;27.45;28.39;96661.59;4977777;28;20606;-35
2021/05/26 01:29:24;;;;;;;1.58;0.55;;;;;;;27.46;28.09;96663.31;4977022;28;20025;-32
2021/05/26 01:31:49;;;;;;;1.08;0.40;;;;;;;27.44;28.11;96654.66;4973439;28;20440;-32
2021/05/26 01:34:15;;;;;;;1.55;0.40;;;;;;;27.45;28.14;96662.47;4980011;28;20030;-32
2021/05/26 01:36:41;;;;;;;3.78;0.57;;;;;;;27.46;28.10;96655.41;4983142;28;20507;-34
2021/05/26 01:39:07;;;;;;;2.08;0.50;;;;;;;27.45;28.16;96640.56;4979586;28;20022;-33
2021/05/26 01:41:32;;;;;;;0.55;0.43;;;;;;;27.45;28.14;96637.91;4983157;28;20053;-35
2021/05/26 01:43:58;;;;;;;2.70;0.50;;;;;;;27.45;28.22;96637.91;4986051;28;20538;-37
2021/05/26 01:46:23;;;;;;;1.70;0.50;;;;;;;27.44;28.19;96633.59;4980250;28;20029;-34
2021/05/26 01:48:49;;;;;;;1.60;0.40;;;;;;;27.45;28.18;96630.03;4975686;28;20029;-34
2021/05/26 01:51:14;;;;;;;7.18;0.50;;;;;;;27.44;28.18;96621.31;4993718;28;20029;-33
2021/05/26 01:53:40;;;;;;;1.55;0.70;;;;;;;27.45;28.29;96624.75;4981860;28;20100;-33
2021/05/26 01:56:23;;;;;;;1.10;0.57;;;;;;;27.44;28.20;96618.66;4977662;28;20169;-34
2021/05/26 01:58:52;;;;;;;1.73;0.50;;;;;;;27.44;28.24;96613.41;4981844;28;20030;-33
2021/05/26 02:01:18;;;;;;;0.80;0.50;;;;;;;27.44;28.23;96617.81;4976459;28;20045;-37
2021/05/26 02:03:44;;;;;;;1.85;0.63;;;;;;;27.43;28.25;96610.88;4979437;28;21054;-35
2021/05/26 02:06:13;;;;;;;3.15;0.82;;;;;;;27.43;28.22;96603.81;4981436;28;20029;-33
2021/05/26 02:08:43;;;;;;;1.48;0.43;;;;;;;27.43;28.25;96605.59;4980302;28;20589;-33
2021/05/26 02:13:53;;;;;;;2.42;0.43;;;;;;;27.43;28.45;96610.88;4978312;28;20045;-35
2021/05/26 02:16:18;;;;;;;2.08;0.40;;;;;;;27.42;28.37;96609.19;4973037;28;20523;-33
2021/05/26 02:18:43;;;;;;;1.35;0.60;;;;;;;27.40;28.41;96596.13;4977853;28;20041;-35
2021/05/26 02:21:09;;;;;;;0.32;0.20;;;;;;;27.42;28.33;96598.66;4981463;28;20688;-32
2021/05/26 02:23:34;;;;;;;1.88;0.50;;;;;;;27.42;28.23;96598.66;4974357;28;20066;-39
2021/05/26 02:26:00;;;;;;;1.90;0.43;;;;;;;27.41;28.36;96591.72;4980471;28;20034;-39
2021/05/26 02:28:25;;;;;;;1.02;0.50;;;;;;;27.41;28.34;96600.44;4977287;28;20396;-36
2021/05/26 02:30:50;;;;;;;3.08;0.40;;;;;;;27.42;28.39;96606.56;4976822;28;20455;-31
2021/05/26 02:33:16;;;;;;;1.85;0.50;;;;;;;27.41;28.28;96603.06;4979886;28;20036;-37
2021/05/26 02:35:41;;;;;;;0.98;0.40;;;;;;;27.42;28.41;96614.44;4979147;28;20061;-32
2021/05/26 02:38:07;;;;;;;3.78;0.50;;;;;;;27.41;28.40;96624.13;4979430;28;20026;-33
2021/05/26 02:40:35;;;;;;;3.03;0.47;;;;;;;27.38;28.40;96619.91;4976470;28;20081;-34
2021/05/26 02:43:01;;;;;;;1.73;0.50;;;;;;;27.40;28.46;96609.28;4979437;28;20547;-30
2021/05/26 02:45:27;;;;;;;1.92;0.50;;;;;;;27.40;28.41;96614.53;4982554;28;20049;-35
2021/05/26 02:47:52;;;;;;;2.65;0.73;;;;;;;27.39;28.42;96611.06;4981926;28;20033;-34
2021/05/26 02:50:17;;;;;;;2.50;0.35;;;;;;;27.38;28.39;96604.09;4979869;28;20029;-35
2021/05/26 02:52:44;;;;;;;0.68;0.50;;;;;;;27.39;28.46;96600.53;4980343;28;20500;-33
2021/05/26 02:55:10;;;;;;;1.25;0.47;;;;;;;27.38;28.42;96604.09;4976909;28;20038;-38
2021/05/26 02:57:36;;;;;;;0.93;0.30;;;;;;;27.39;28.47;96603.16;4982434;28;20028;-38
2021/05/26 03:00:01;;;;;;;2.83;0.55;;;;;;;27.40;28.47;96601.38;4984758;28;20664;-31
2021/05/26 03:02:26;;;;;;;1.17;0.43;;;;;;;27.39;28.43;96597.91;4982256;28;20733;-33
2021/05/26 03:04:52;;;;;;;0.47;0.30;;;;;;;27.38;28.55;96598.84;4980301;28;20037;-39
2021/05/26 03:07:17;;;;;;;0.77;0.30;;;;;;;27.39;28.49;96586.53;4983221;28;20023;-36
2021/05/26 03:09:43;;;;;;;0.93;0.38;;;;;;;27.38;28.45;96593.59;4980030;28;20701;-32
2021/05/26 03:12:08;;;;;;;1.20;0.50;;;;;;;27.38;28.52;96588.31;4984114;28;20026;-37
2021/05/26 03:14:34;;;;;;;2.38;0.50;;;;;;;27.38;28.42;96587.47;4980282;28;20265;-35
2021/05/26 03:16:59;;;;;;;1.27;0.40;;;;;;;27.38;28.47;96579.56;4982407;28;20679;-36
2021/05/26 03:19:25;;;;;;;3.63;0.60;;;;;;;27.37;28.48;96576.13;4983880;28;20029;-38
2021/05/26 03:21:50;;;;;;;1.38;0.52;;;;;;;27.38;28.47;96574.31;4981174;28;20046;-34
2021/05/26 03:24:16;;;;;;;0.63;0.30;;;;;;;27.37;28.49;96575.25;4985380;28;20031;-33
2021/05/26 03:26:41;;;;;;;1.08;0.30;;;;;;;27.37;28.49;96565.59;4984914;28;20735;-36
2021/05/26 03:29:07;;;;;;;1.20;0.40;;;;;;;27.37;28.44;96568.22;4986143;28;20835;-33
2021/05/26 03:31:32;;;;;;;1.48;0.40;;;;;;;27.37;28.42;96562.94;4980888;28;20049;-33
2021/05/26 03:33:58;;;;;;;1.50;0.35;;;;;;;27.36;28.47;96563.91;4983890;28;20100;-32
2021/05/26 03:36:23;;;;;;;2.10;0.45;;;;;;;27.36;28.61;96566.53;4983047;28;20042;-36
2021/05/26 03:38:49;;;;;;;0.77;0.43;;;;;;;27.36;28.69;96552.53;4985242;28;20080;-34
2021/05/26 03:41:14;;;;;;;18.55;0.90;;;;;;;27.36;28.51;96553.38;4965795;28;20519;-35
2021/05/26 03:43:39;;;;;;;0.57;0.20;;;;;;;27.36;28.51;96556.00;4985564;28;20036;-30
2021/05/26 03:46:05;;;;;;;1.27;0.30;;;;;;;27.35;28.53;96546.41;4982366;28;20038;-32
2021/05/26 03:48:30;;;;;;;1.55;0.30;;;;;;;27.36;28.57;96548.13;4985081;28;20054;-34
2021/05/26 03:50:55;;;;;;;2.63;0.40;;;;;;;27.35;28.50;96541.13;4984123;28;20022;-36
2021/05/26 03:53:21;;;;;;;0.52;0.30;;;;;;;27.36;28.53;96542.84;4985964;28;20025;-35
2021/05/26 03:55:46;;;;;;;0.95;0.52;;;;;;;27.35;28.55;96545.56;4981436;28;20030;-34
2021/05/26 03:58:12;;;;;;;1.48;0.60;;;;;;;27.35;28.48;96548.22;4978283;28;20696;-34
2021/05/26 04:00:37;;;;;;;3.90;0.30;;;;;;;27.35;28.43;96543.78;4983855;28;20050;-35
2021/05/26 04:03:02;;;;;;;0.73;0.20;;;;;;;27.33;28.44;96543.03;4980076;28;20037;-33
2021/05/26 04:05:30;;;;;;;0.82;0.50;;;;;;;27.34;28.75;96551.78;4989419;28;20053;-35
2021/05/26 04:07:55;;;;;;;0.88;0.30;;;;;;;27.35;28.59;96550.84;4984925;28;20551;-35
2021/05/26 04:10:21;;;;;;;4.00;0.50;;;;;;;27.34;28.65;96551.78;4977465;28;20030;-33
2021/05/26 04:12:46;;;;;;;1.65;0.38;;;;;;;27.34;28.70;96549.97;4981687;28;20023;-34
2021/05/26 04:15:12;;;;;;;1.73;0.40;;;;;;;27.34;28.52;96555.25;4979499;28;20540;-33
2021/05/26 04:17:38;;;;;;;1.58;0.50;;;;;;;27.34;28.58;96546.53;4976368;28;20030;-35
2021/05/26 04:20:04;;;;;;;1.60;0.35;;;;;;;27.34;28.60;96549.97;4983304;28;20081;-35
2021/05/26 04:22:34;;;;;;;1.45;0.50;;;;;;;27.32;28.60;96546.63;4981409;28;20045;-31
2021/05/26 04:24:59;;;;;;;3.13;0.30;;;;;;;27.33;28.60;96537.78;4977821;28;20025;-35
2021/05/26 04:27:25;;;;;;;1.92;0.60;;;;;;;27.33;28.55;96537.78;4982725;28;20034;-33
2021/05/26 04:29:50;;;;;;;1.83;0.40;;;;;;;27.33;28.56;96531.66;4977527;28;20034;-34
2021/05/26 04:32:16;;;;;;;1.55;0.50;;;;;;;27.33;28.61;96532.50;4980753;28;20042;-35
2021/05/26 04:34:41;;;;;;;2.38;0.40;;;;;;;27.32;28.69;96522.94;4984312;28;20037;-34
2021/05/26 04:37:06;;;;;;;0.80;0.38;;;;;;;27.31;28.62;96509.88;4980375;28;20092;-32
2021/05/26 04:39:32;;;;;;;3.58;0.52;;;;;;;27.32;28.67;96509.78;4982878;28;20096;-35
2021/05/26 04:41:57;;;;;;;2.30;0.65;;;;;;;27.31;28.61;96515.97;4982863;28;20037;-34
2021/05/26 04:44:23;;;;;;;3.25;0.50;;;;;;;27.31;28.65;96518.59;4992041;28;20458;-32
2021/05/26 04:46:48;;;;;;;2.10;0.70;;;;;;;27.30;28.62;96516.91;4970061;28;20239;-33
2021/05/26 04:49:13;;;;;;;1.55;0.40;;;;;;;27.30;28.65;96516.91;4980885;28;20049;-35
2021/05/26 04:51:39;;;;;;;2.25;0.70;;;;;;;27.30;28.73;96516.91;4982494;28;20034;-32
2021/05/26 04:54:05;;;;;;;1.20;0.43;;;;;;;27.31;28.68;96513.34;4980520;28;20030;-35
2021/05/26 04:56:31;;;;;;;0.47;0.35;;;;;;;27.30;28.69;96506.41;4975940;28;20037;-36
2021/05/26 04:58:56;;;;;;;1.38;0.30;;;;;;;27.31;28.63;96509.88;4983353;28;20044;-36
2021/05/26 05:01:22;;;;;;;0.75;0.30;;;;;;;27.30;28.60;96505.56;4984583;28;20107;-36
2021/05/26 05:03:47;;;;;;;1.20;0.38;;;;;;;27.29;28.50;96515.22;4982938;28;20038;-36
2021/05/26 05:06:13;;;;;;;4.50;0.40;;;;;;;27.30;28.57;96516.09;4980660;28;20041;-35
2021/05/26 05:08:38;;;;;;;0.77;0.30;;;;;;;27.30;28.68;96522.19;4977140;28;20026;-33
2021/05/26 05:11:04;;;;;;;1.52;0.25;;;;;;;27.29;28.65;96515.22;4983070;28;20022;-33
2021/05/26 05:13:30;;;;;;;1.33;0.30;;;;;;;27.28;28.65;96500.41;4975327;28;20168;-32
2021/05/26 05:15:55;;;;;;;0.38;0.30;;;;;;;27.29;28.60;96496.81;4979990;28;20745;-35
2021/05/26 05:18:23;;;;;;;0.98;0.30;;;;;;;27.29;28.67;96488.91;4982909;28;22159;-34
2021/05/26 05:20:48;;;;;;;0.40;0.30;;;;;;;27.28;28.59;96476.72;4982234;28;20034;-35
2021/05/26 05:23:14;;;;;;;0.70;0.40;;;;;;;27.28;28.57;96476.72;4977339;28;20029;-40
2021/05/26 05:25:39;;;;;;;0.47;0.22;;;;;;;27.27;28.71;96482.94;4976132;28;20488;-36
2021/05/26 05:28:05;;;;;;;0.73;0.30;;;;;;;27.27;28.67;96490.81;4982313;28;20049;-34
2021/05/26 05:30:31;;;;;;;0.73;0.35;;;;;;;27.27;28.57;96485.56;4970982;28;20652;-31
2021/05/26 05:32:56;;;;;;;1.83;0.40;;;;;;;27.26;28.64;96492.59;4980607;28;20160;-33
2021/05/26 05:35:22;;;;;;;1.33;0.30;;;;;;;27.26;28.68;96494.38;4980904;28;20084;-34
2021/05/26 05:37:47;;;;;;;1.48;0.30;;;;;;;27.26;28.57;96489.13;4981150;28;20029;-36
2021/05/26 05:40:13;;;;;;;1.67;0.30;;;;;;;27.25;28.69;96482.16;4982625;28;20026;-33
2021/05/26 05:42:38;;;;;;;0.55;0.28;;;;;;;27.26;28.68;96483.84;4983301;28;20494;-34
2021/05/26 05:45:04;;;;;;;2.33;0.30;;;;;;;27.26;28.69;96479.44;4977756;28;21033;-30
2021/05/26 05:47:30;;;;;;;0.45;0.28;;;;;;;27.25;28.75;96483.03;4979194;28;20057;-32
2021/05/26 05:49:55;;;;;;;1.48;0.30;;;;;;;27.25;28.76;96483.03;4979334;28;20124;-34
2021/05/26 05:52:21;;;;;;;0.63;0.20;;;;;;;27.25;28.88;96483.03;4980319;28;20119;-31
2021/05/26 05:54:46;;;;;;;0.88;0.40;;;;;;;27.25;28.72;96479.53;4984344;28;20032;-34
2021/05/26 05:57:12;;;;;;;0.85;0.32;;;;;;;27.25;28.71;96476.91;4984434;28;20042;-34
2021/05/26 05:59:37;;;;;;;1.63;0.40;;;;;;;27.25;28.72;96482.16;4970266;28;20023;-33
2021/05/26 06:02:03;;;;;;;0.70;0.30;;;;;;;27.25;28.65;96466.38;4970165;28;20064;-32
2021/05/26 06:04:28;;;;;;;4.30;0.60;;;;;;;27.25;28.99;96469.00;4978952;28;20037;-34
2021/05/26 06:06:53;;;;;;;1.23;0.40;;;;;;;27.25;29.03;96471.66;4979748;28;20033;-34
2021/05/26 06:09:20;;;;;;;1.15;0.30;;;;;;;27.24;29.04;96465.53;4980066;28;20057;-34
2021/05/26 06:11:46;;;;;;;1.10;0.52;;;;;;;27.24;28.92;96469.97;4973709;28;20076;-32
2021/05/26 06:14:12;;;;;;;2.17;0.47;;;;;;;27.24;28.93;96464.72;4970897;28;20025;-34
2021/05/26 06:16:38;;;;;;;2.10;0.75;;;;;;;27.24;29.13;96459.44;4975202;28;20162;-35
2021/05/26 06:19:04;;;;;;;2.13;0.60;;;;;;;27.24;28.96;96469.97;4981690;28;20531;-35
2021/05/26 06:21:30;;;;;;;3.53;0.60;;;;;;;27.24;29.03;96464.72;4987372;28;20041;-36
2021/05/26 06:23:55;;;;;;;7.55;0.93;;;;;;;27.23;29.17;96463.03;4989126;28;20087;-34
2021/05/26 06:26:21;;;;;;;13.50;1.15;;;;;;;27.23;29.23;96474.38;4982669;28;20038;-30
2021/05/26 06:28:46;;;;;;;5.25;1.02;;;;;;;27.23;29.14;96476.19;4981620;28;20687;-32
2021/05/26 06:31:12;;;;;;;6.75;1.27;;;;;;;27.22;29.24;96471.84;4979433;28;20069;-34
2021/05/26 06:33:37;;;;;;;3.45;1.15;;;;;;;27.23;29.18;96470.91;4982648;28;20029;-32
2021/05/26 06:36:03;;;;;;;4.68;1.42;;;;;;;27.23;29.12;96468.28;4980582;28;20030;-30
2021/05/26 06:38:28;;;;;;;5.30;1.55;;;;;;;27.23;29.11;96465.66;4980828;28;20032;-34
2021/05/26 06:40:54;;;;;;;6.55;1.55;;;;;;;27.22;29.37;96463.94;4982401;28;20029;-37
2021/05/26 06:43:19;;;;;;;5.10;1.30;;;;;;;27.22;29.29;96466.56;4987358;28;20025;-35
2021/05/26 06:45:45;;;;;;;4.15;1.17;;;;;;;27.22;29.25;96458.69;4981278;28;20546;-34
2021/05/26 06:48:10;;;;;;;7.55;1.42;;;;;;;27.23;29.23;96463.03;4983162;28;20827;-30
2021/05/26 06:50:36;;;;;;;6.32;1.27;;;;;;;27.22;29.26;96456.91;4981051;28;21927;-34
2021/05/26 06:53:01;;;;;;;16.85;1.40;;;;;;;27.23;29.51;96447.25;4975174;28;20504;-36
2021/05/26 06:55:27;;;;;;;38.08;1.95;;;;;;;27.23;29.78;96439.34;4977867;28;20463;-32
2021/05/26 06:57:52;;;;;;;24.95;2.38;;;;;;;27.24;29.90;96441.03;4984257;28;20215;-36
2021/05/26 07:00:18;;;;;;;33.83;2.33;;;;;;;27.23;30.00;96436.72;4982408;28;20786;-34
2021/05/26 07:02:43;;;;;;;11.38;1.50;;;;;;;27.17;29.95;96432.69;4982461;28;20140;-37
2021/05/26 07:05:09;;;;;;;15.55;1.50;;;;;;;27.21;30.23;96434.19;4986063;28;20019;-31
2021/05/26 07:07:35;;;;;;;9.05;1.25;;;;;;;27.21;30.06;96435.97;4969346;28;20478;-33
2021/05/26 07:10:02;;;;;;;11.63;1.95;;;;;;;27.21;30.14;96436.81;4984538;28;20096;-30
2021/05/26 07:12:27;;;;;;;8.23;1.55;;;;;;;27.22;30.13;96442.91;4995375;28;20125;-34
2021/05/26 07:14:53;;;;;;;12.00;2.17;;;;;;;27.22;30.19;96445.53;4984440;28;20037;-35
2021/05/26 07:17:18;;;;;;;8.13;1.52;;;;;;;27.21;30.15;96443.84;4981220;28;20034;-34
2021/05/26 07:19:44;;;;;;;9.40;1.55;;;;;;;27.21;30.22;96438.59;4986687;28;20500;-34
2021/05/26 07:22:09;;;;;;;11.07;1.15;;;;;;;27.21;30.01;96433.31;4987487;28;20025;-33
2021/05/26 07:24:34;;;;;;;8.25;1.40;;;;;;;27.21;30.17;96435.97;4989958;28;20507;-36
2021/05/26 07:27:00;;;;;;;8.43;1.42;;;;;;;27.21;30.06;96447.34;4983224;28;20045;-33
2021/05/26 07:29:25;;;;;;;10.75;1.50;;;;;;;27.21;30.21;96441.22;4985805;28;20034;-36
2021/05/26 07:31:51;;;;;;;6.40;1.33;;;;;;;27.22;30.24;96445.53;4980295;28;20041;-35
2021/05/26 07:34:16;;;;;;;5.70;1.30;;;;;;;27.17;30.23;96442.34;4981078;28;20026;-36
2021/05/26 07:36:41;;;;;;;5.10;1.33;;;;;;;27.21;30.01;96454.38;4977013;28;20108;-34
2021/05/26 07:39:08;;;;;;;7.57;1.13;;;;;;;27.21;30.21;96449.09;4981137;28;20026;-33
2021/05/26 07:41:33;;;;;;;8.55;1.38;;;;;;;27.20;30.26;96453.53;4998212;28;20050;-30
2021/05/26 07:43:59;;;;;;;6.63;1.17;;;;;;;27.20;30.28;96457.94;4981798;28;20460;-34
2021/05/26 07:46:24;;;;;;;5.75;1.45;;;;;;;27.19;30.11;96445.75;4981817;28;20037;-39
2021/05/26 07:48:52;;;;;;;4.93;1.15;;;;;;;27.19;30.26;96451.84;4981867;28;20038;-33
2021/05/26 07:51:28;;;;;;;6.90;1.38;;;;;;;27.21;30.27;96454.38;4980487;28;20050;-31
2021/05/26 07:53:54;;;;;;;3.17;0.77;;;;;;;27.20;30.21;96450.91;4983193;28;20127;-34
2021/05/26 07:56:22;;;;;;;7.90;1.48;;;;;;;27.20;30.20;96453.53;4982251;28;20121;-32
2021/05/26 07:58:48;;;;;;;5.25;1.27;;;;;;;27.20;30.35;96455.31;4979788;28;20166;-32
2021/05/26 08:01:13;;;;;;;5.85;1.00;;;;;;;27.20;30.42;96453.53;4982708;28;21041;-33
2021/05/26 08:03:39;;;;;;;7.45;1.45;;;;;;;27.20;30.35;96445.66;4982389;28;20037;-34
2021/05/26 08:06:04;;;;;;;9.68;1.48;;;;;;;27.22;30.27;96445.53;4981971;28;20554;-33
2021/05/26 08:08:30;;;;;;;5.93;1.33;;;;;;;27.22;30.43;96450.78;4988000;28;20030;-35
2021/05/26 08:10:56;;;;;;;2.92;0.70;;;;;;;27.22;30.30;96445.53;4979893;28;20021;-35
2021/05/26 08:13:21;;;;;;;7.95;1.35;;;;;;;27.21;30.34;96441.22;4983160;28;20221;-30
2021/05/26 08:15:47;;;;;;;7.03;1.20;;;;;;;27.22;30.49;96440.28;4976470;28;20041;-36
2021/05/26 08:18:12;;;;;;;7.13;1.10;;;;;;;27.23;30.41;96449.88;4978753;28;20033;-32
2021/05/26 08:20:40;;;;;;;5.68;1.20;;;;;;;27.24;30.45;96443.66;4977588;28;20163;-36
2021/05/26 08:23:05;;;;;;;16.77;1.40;;;;;;;27.23;30.57;96448.06;4981534;28;20724;-28
2021/05/26 08:25:30;;;;;;;3.75;1.30;;;;;;;27.19;28.42;96449.19;4988197;28;20036;-29
2021/05/26 08:27:56;;;;;;;7.75;1.88;;;;;;;27.08;27.13;96442.00;4989564;28;20080;-33
2021/05/26 08:30:21;;;;;;;6.90;1.90;;;;;;;26.95;26.93;96438.47;4986001;28;20108;-32
2021/05/26 08:32:50;;;;;;;8.30;1.70;;;;;;;26.81;27.11;96437.53;4983999;28;20148;-34
2021/05/26 08:35:15;;;;;;;23.98;1.88;;;;;;;26.73;27.18;96440.66;4986917;28;20030;-34
2021/05/26 08:37:41;;;;;;;6.10;1.48;;;;;;;26.66;27.42;96439.31;4988309;28;20030;-34
2021/05/26 08:40:06;;;;;;;4.63;1.73;;;;;;;26.61;27.71;96442.25;4989014;28;20022;-36
2021/05/26 08:42:32;;;;;;;6.40;1.80;;;;;;;26.59;27.81;96438.88;4988561;28;20550;-33
2021/05/26 08:44:57;;;;;;;4.88;1.85;;;;;;;26.59;27.89;96444.13;4986775;28;20550;-32
2021/05/26 08:47:23;;;;;;;6.22;1.70;;;;;;;26.61;28.11;96449.28;4989525;28;20056;-32
2021/05/26 08:49:49;;;;;;;4.10;1.45;;;;;;;26.60;28.21;96443.22;4971072;28;20061;-35
2021/05/26 08:52:15;;;;;;;4.72;1.67;;;;;;;26.63;28.29;96447.44;4983479;28;20026;-35
2021/05/26 08:54:42;;;;;;;5.15;1.50;;;;;;;26.58;28.28;96437.19;4983894;28;20383;-33
2021/05/26 08:57:08;;;;;;;10.80;1.73;;;;;;;26.67;28.48;96448.06;4983380;28;20026;-34
2021/05/26 08:59:34;;;;;;;5.15;2.03;;;;;;;26.67;28.41;96440.19;4980725;28;20138;-32
2021/05/26 09:01:59;;;;;;;9.68;2.05;;;;;;;26.70;28.58;96438.19;4983218;28;20512;-36
2021/05/26 09:04:32;;;;;;;5.20;1.52;;;;;;;26.73;28.58;96445.03;4978749;28;20098;-33
2021/05/26 09:07:11;;;;;;;10.40;2.35;;;;;;;26.76;28.64;96446.66;4977148;28;20034;-35
2021/05/26 09:09:47;;;;;;;7.05;1.92;;;;;;;26.76;28.57;96439.59;4974145;28;20166;-31
2021/05/26 09:12:13;;;;;;;8.57;2.05;;;;;;;26.78;28.65;96437.75;4974533;28;20663;-32
2021/05/26 09:14:39;;;;;;;9.93;2.15;;;;;;;26.80;28.69;96441.09;4971275;28;20491;-36
2021/05/26 09:17:11;;;;;;;11.02;1.83;;;;;;;26.81;28.66;96450.66;4972023;28;20026;-32
2021/05/26 09:19:37;;;;;;;8.07;1.73;;;;;;;26.83;28.64;96440.91;4971821;28;20025;-35
2021/05/26 09:22:18;;;;;;;3.97;1.55;;;;;;;26.85;28.73;96444.28;4971870;28;20032;-31
2021/05/26 09:24:43;;;;;;;6.97;1.73;;;;;;;26.86;29.03;96435.44;4972762;28;20037;-33
2021/05/26 09:27:10;;;;;;;9.30;1.70;;;;;;;26.90;28.78;96432.63;4972077;28;20026;-34
2021/05/26 09:29:37;;;;;;;5.97;1.75;;;;;;;26.90;28.91;96436.13;4973876;28;20030;-32
2021/05/26 09:32:26;;;;;;;10.77;1.70;;;;;;;26.93;28.90;96442.97;4973723;28;20030;-34
2021/05/26 09:34:58;;;;;;;4.40;1.40;;;;;;;26.94;28.87;96448.16;4973013;28;20534;-32
2021/05/26 09:37:31;;;;;;;10.18;2.33;;;;;;;26.95;28.90;96441.94;4971994;28;20040;-34
2021/05/26 09:39:57;;;;;;;6.85;2.05;;;;;;;26.97;29.05;96452.38;4970427;28;20018;-38
2021/05/26 09:42:41;;;;;;;10.32;1.60;;;;;;;26.97;29.08;96453.19;4972869;28;20026;-35
2021/05/26 09:45:14;;;;;;;13.98;1.40;;;;;;;27.00;29.17;96446.91;4971522;28;20033;-35
2021/05/26 09:47:41;;;;;;;5.60;1.65;;;;;;;27.00;29.24;96446.91;4969628;28;20034;-35
2021/05/26 09:50:34;;;;;;;13.63;1.48;;;;;;;27.02;29.28;96439.78;4972145;28;20040;-35
2021/05/26 09:53:15;;;;;;;6.60;1.42;;;;;;;27.02;29.33;96442.41;4975884;28;20091;-34
2021/05/26 09:55:40;;;;;;;8.25;1.77;;;;;;;27.04;29.28;96448.41;4981108;28;20045;-35
2021/05/26 09:58:08;;;;;;;12.57;1.63;;;;;;;27.05;29.45;96450.09;4981559;28;20029;-40
2021/05/26 10:00:34;;;;;;;6.90;1.08;;;;;;;27.06;29.45;96446.53;4980092;28;20042;-38
2021/05/26 10:02:59;;;;;;;7.15;1.58;;;;;;;27.08;29.42;96446.44;4975945;28;20030;-33
2021/05/26 10:05:25;;;;;;;7.32;1.50;;;;;;;27.09;29.45;96448.13;4979306;28;20026;-37
2021/05/26 10:07:52;;;;;;;16.48;1.65;;;;;;;27.10;29.60;96447.16;4963098;28;20411;-34
2021/05/26 10:10:18;;;;;;;13.60;1.58;;;;;;;27.11;29.65;96454.09;4975791;28;20038;-35
2021/05/26 10:12:44;;;;;;;14.70;1.55;;;;;;;27.11;29.84;96448.84;4978371;28;20289;-31
2021/05/26 10:15:10;;;;;;;11.70;1.95;;;;;;;27.13;29.94;96460.13;4960549;28;20026;-33
2021/05/26 10:17:41;;;;;;;12.50;1.60;;;;;;;27.15;30.08;96454.78;4979026;28;20438;-31
2021/05/26 10:20:11;;;;;;;12.18;2.05;;;;;;;27.14;30.32;96451.28;4981983;28;20037;-32
2021/05/26 10:22:36;;;;;;;6.78;1.40;;;;;;;27.12;30.38;96435.59;4980746;28;20720;-36
2021/05/26 10:25:06;;;;;;;14.15;1.83;;;;;;;27.18;30.54;96454.56;4974804;28;20045;-33
2021/05/26 10:27:52;;;;;;;16.08;1.90;;;;;;;27.19;30.73;96448.38;4976159;28;20030;-31
2021/05/26 10:30:20;;;;;;;9.07;1.77;;;;;;;27.20;30.64;96444.78;4976911;28;20048;-34
2021/05/26 10:32:55;;;;;;;7.05;1.73;;;;;;;27.21;30.81;96449.09;4976596;28;20065;-32
2021/05/26 10:35:22;;;;;;;11.68;1.63;;;;;;;27.22;30.93;96445.53;4975942;28;20029;-31
2021/05/26 10:38:14;;;;;;;14.80;1.88;;;;;;;27.24;31.02;96452.38;4980976;28;20084;-34
2021/05/26 10:40:41;;;;;;;9.10;2.00;;;;;;;27.25;31.02;96453.22;4974227;28;20026;-32
2021/05/26 10:43:16;;;;;;;4.45;1.60;;;;;;;27.26;31.10;96447.03;4979444;28;20030;-32
2021/05/26 10:45:44;;;;;;;7.75;1.60;;;;;;;27.26;31.19;96447.03;4985626;28;20100;-34
2021/05/26 10:48:09;;;;;;;8.57;1.75;;;;;;;27.27;31.09;96454.81;4979370;28;20516;-36
2021/05/26 10:50:44;;;;;;;8.48;1.80;;;;;;;27.28;31.16;96450.41;4986038;28;20178;-32
2021/05/26 10:53:10;;;;;;;17.05;1.77;;;;;;;27.29;31.18;96452.09;4979000;28;20473;-34
2021/05/26 10:55:49;;;;;;;9.43;1.92;;;;;;;27.31;31.21;96450.19;4976050;28;20037;-30
2021/05/26 10:58:34;;;;;;;4.82;1.45;;;;;;;27.33;31.25;96443.06;4975650;28;20104;-31
2021/05/26 11:01:05;;;;;;;17.65;1.95;;;;;;;27.32;31.13;96449.28;4979557;28;20073;-35
2021/05/26 11:03:44;;;;;;;6.57;1.55;;;;;;;27.33;31.18;96443.06;4983795;28;20061;-35
2021/05/26 11:06:18;;;;;;;9.60;1.40;;;;;;;27.33;31.22;96448.31;4987518;28;20771;-31
2021/05/26 11:08:47;;;;;;;9.45;1.83;;;;;;;27.35;31.31;96445.59;4990716;28;20029;-34
2021/05/26 11:11:25;;;;;;;8.73;1.55;;;;;;;27.35;31.23;96446.41;4989303;28;20045;-36
2021/05/26 11:14:13;;;;;;;8.48;1.30;;;;;;;27.36;31.26;96445.50;4989520;28;20034;-33
2021/05/26 11:16:45;;;;;;;9.00;1.50;;;;;;;27.38;31.32;96445.38;4992207;28;20030;-38
2021/05/26 11:19:17;;;;;;;14.50;1.58;;;;;;;27.37;31.33;96444.56;4990210;28;20030;-35
2021/05/26 11:21:53;;;;;;;15.65;1.60;;;;;;;27.38;31.33;96435.72;4986281;28;20030;-34
2021/05/26 11:24:18;;;;;;;10.20;1.55;;;;;;;27.38;31.32;96438.34;4987635;28;20034;-36
2021/05/26 11:26:44;;;;;;;11.38;1.60;;;;;;;27.39;31.41;96426.84;4989925;28;20584;-35
2021/05/26 11:29:09;;;;;;;10.88;1.83;;;;;;;27.41;31.40;96431.19;4978104;28;20907;-34
2021/05/26 11:31:35;;;;;;;19.67;1.80;;;;;;;27.41;31.43;96434.66;4986822;28;20030;-32
2021/05/26 11:34:01;;;;;;;11.45;1.42;;;;;;;27.42;31.56;96425.00;4981876;28;20050;-32